ダラス/フォートワース の空港の天気 - METARとTAF

ダラス・フォートワース国際空港 ( KDFW / DFW ) - アメリカ テキサス州ダラス & フォートワース
飛行場実況気象(Metar)
観測時間07/15 06:53 CDT (07/15 11:53 UTC)
風向・風速南 5m/s
視程10km以上
天気現象
少しの雲 雲底高度 490m
全天の4割程度の雲 雲底高度 3050m
全天の8割程度の雲 雲底高度 5490m
気温26.7℃
湿度82%
気圧1012.1hPa
METARKDFW 151153Z 17009KT 10SM FEW016 SCT100 BKN180 27/23 A2992 RMK AO2 SLP121 VIRGA T02670233 10306 20267 53027
過去の天気等 Google飛行場航空写真 Wunderground天気予報

過去48時間のMETAR

飛行場予報(TAF)
発表時間: 7/15 06:20 CDT (7/15 11:20 UTC)
予報対象時間: 15日7時 CDT ~ 16日13時 CDT
風向・風速南 9m/s
視程10km以上
天気現象周辺でしゅう雨
全天の4割程度の雲 雲底高度 3350m
全天の8割程度の雲 雲底高度 7620m
15日9時 CDT から
風向・風速南 8m/s 瞬間風速 13m/s
視程10km以上
少しの雲 雲底高度 4570m
全天の8割程度の雲 雲底高度 7620m
15日20時 CDT から
風向・風速南 6m/s
視程10km以上
全天の4割程度の雲 雲底高度 7620m
KDFW 151120Z 1512/1618 17017KT P6SM VCSH SCT110 BKN250
FM151400 17015G25KT P6SM FEW150 BKN250
FM160100 18011KT P6SM SCT250